createdAt,value
2023-01-26T04:50:18.800Z,0.88
2023-01-26T04:52:46.411Z,0.91
2023-01-26T04:55:14.081Z,0.92
2023-01-26T04:57:41.659Z,0.90
2023-01-26T05:00:12.263Z,0.89
2023-01-26T05:02:40.763Z,0.88
2023-01-26T05:05:09.210Z,0.91
2023-01-26T05:07:38.167Z,0.91
2023-01-26T05:10:06.800Z,0.90
2023-01-26T05:12:34.406Z,0.92
2023-01-26T05:15:02.022Z,0.91
2023-01-26T05:17:29.605Z,0.95
2023-01-26T05:19:57.258Z,0.99
2023-01-26T05:22:24.911Z,1.01
2023-01-26T05:24:53.862Z,1.03
2023-01-26T05:27:24.421Z,1.05
2023-01-26T05:29:53.342Z,1.08
2023-01-26T05:32:22.166Z,1.11
2023-01-26T05:34:49.811Z,1.10
2023-01-26T05:37:17.416Z,1.12
2023-01-26T05:39:45.020Z,1.11
2023-01-26T05:42:14.571Z,1.13
2023-01-26T05:44:42.155Z,1.15
2023-01-26T05:47:09.775Z,1.15
2023-01-26T05:49:38.717Z,1.17
2023-01-26T05:52:09.548Z,1.19
2023-01-26T05:54:37.368Z,1.20
2023-01-26T05:57:05.014Z,1.21
2023-01-26T05:59:34.048Z,1.23
2023-01-26T06:02:02.116Z,1.24
2023-01-26T06:04:30.113Z,1.24
2023-01-26T06:06:59.679Z,1.21
2023-01-26T06:09:27.678Z,1.23
2023-01-26T06:11:55.405Z,1.25
2023-01-26T06:14:23.115Z,1.25
2023-01-26T06:16:52.470Z,1.26
2023-01-26T06:19:20.104Z,1.26
2023-01-26T06:21:47.716Z,1.27
2023-01-26T06:24:15.456Z,1.26
2023-01-26T06:26:43.025Z,1.26
2023-01-26T06:29:10.658Z,1.23
2023-01-26T06:31:39.062Z,1.21
2023-01-26T06:34:08.887Z,1.23
2023-01-26T06:36:36.549Z,1.24
2023-01-26T06:39:05.013Z,1.26
2023-01-26T06:41:32.953Z,1.28
2023-01-26T06:44:00.537Z,1.31
2023-01-26T06:46:28.258Z,1.31
2023-01-26T06:48:55.848Z,1.32
2023-01-26T06:51:56.731Z,1.33
2023-01-26T06:54:24.336Z,1.32
2023-01-26T06:56:52.079Z,1.34
2023-01-26T06:59:19.645Z,1.37
2023-01-26T07:01:49.709Z,1.38
2023-01-26T07:04:18.426Z,1.39
2023-01-26T07:06:46.069Z,1.42
2023-01-26T07:09:15.038Z,1.44
2023-01-26T07:11:42.590Z,1.45
2023-01-26T07:14:10.207Z,1.46
2023-01-26T07:16:37.794Z,1.49
2023-01-26T07:19:05.451Z,1.49
2023-01-26T07:21:33.066Z,1.52
2023-01-26T07:24:00.686Z,1.53
2023-01-26T07:26:29.660Z,1.54
2023-01-26T07:28:57.290Z,1.57
2023-01-26T07:31:25.166Z,1.60
2023-01-26T07:33:52.918Z,1.62
2023-01-26T07:36:20.574Z,1.64
2023-01-26T07:38:48.857Z,1.65
2023-01-26T07:41:16.543Z,1.68
2023-01-26T07:43:45.595Z,1.72
2023-01-26T07:46:13.296Z,1.74
2023-01-26T07:48:41.813Z,1.77
2023-01-26T07:51:10.993Z,1.76
2023-01-26T07:53:39.585Z,1.78
2023-01-26T07:56:13.150Z,1.77
2023-01-26T07:58:41.297Z,1.76
2023-01-26T08:01:12.378Z,1.79
2023-01-26T08:03:40.668Z,1.83
2023-01-26T08:06:12.104Z,1.88
2023-01-26T08:08:42.109Z,1.95
2023-01-26T08:11:10.422Z,1.97
2023-01-26T08:13:38.674Z,2.02
2023-01-26T08:16:11.879Z,2.05
2023-01-26T08:18:41.364Z,2.08
2023-01-26T08:21:09.422Z,2.14
2023-01-26T08:23:37.055Z,2.20
2023-01-26T08:26:05.924Z,2.23
2023-01-26T08:28:34.051Z,2.24
2023-01-26T08:31:05.811Z,2.26
2023-01-26T08:33:34.780Z,2.34
2023-01-26T08:36:04.504Z,2.39
2023-01-26T08:38:32.692Z,2.47
2023-01-26T08:41:00.504Z,2.53
2023-01-26T08:43:28.400Z,2.55
2023-01-26T08:45:55.998Z,2.60
2023-01-26T08:48:24.156Z,2.64
2023-01-26T08:50:55.084Z,2.62
2023-01-26T08:53:24.197Z,2.65
2023-01-26T08:55:52.266Z,2.62
2023-01-26T08:58:20.548Z,2.61
2023-01-26T09:00:49.071Z,2.61
2023-01-26T09:03:16.977Z,2.62
2023-01-26T09:05:44.665Z,2.62
2023-01-26T09:08:12.452Z,2.62
2023-01-26T09:10:41.643Z,2.62
2023-01-26T09:13:10.323Z,2.62
2023-01-26T09:15:39.433Z,2.62
2023-01-26T09:18:07.155Z,2.62
2023-01-26T09:20:34.803Z,2.66
2023-01-26T09:23:02.429Z,2.64
2023-01-26T09:25:30.297Z,2.68
2023-01-26T09:27:59.255Z,2.74
2023-01-26T09:30:26.930Z,2.78
2023-01-26T09:32:58.997Z,2.95
2023-01-26T09:35:26.659Z,3.05
2023-01-26T09:37:54.237Z,3.07
2023-01-26T09:40:27.281Z,3.17
2023-01-26T09:43:08.912Z,3.27
2023-01-26T09:45:43.077Z,3.43
2023-01-26T09:48:25.339Z,3.55
2023-01-26T09:50:59.029Z,3.65
2023-01-26T09:53:36.239Z,3.69
2023-01-26T09:56:04.146Z,3.84
2023-01-26T09:58:37.086Z,3.89
2023-01-26T10:01:05.454Z,4.03
2023-01-26T10:03:42.646Z,4.19
2023-01-26T10:06:17.315Z,4.31
2023-01-26T10:08:45.628Z,4.36
2023-01-26T10:11:20.743Z,4.37
2023-01-26T10:13:55.169Z,4.52
2023-01-26T10:16:24.917Z,4.56
2023-01-26T10:18:58.259Z,4.60
2023-01-26T10:21:31.935Z,4.62
2023-01-26T10:24:01.518Z,4.61
2023-01-26T10:26:32.626Z,4.61
2023-01-26T10:29:01.914Z,4.61
2023-01-26T10:31:32.391Z,4.66
2023-01-26T10:34:03.205Z,4.68
2023-01-26T10:36:32.579Z,4.70
2023-01-26T10:39:06.478Z,4.73
2023-01-26T10:41:34.849Z,4.78
2023-01-26T10:44:05.847Z,4.74
2023-01-26T10:46:36.296Z,4.78
2023-01-26T10:49:15.707Z,4.79
2023-01-26T10:51:45.559Z,4.76
2023-01-26T10:54:21.604Z,4.77
2023-01-26T10:56:52.317Z,4.73
2023-01-26T10:59:34.056Z,4.68
2023-01-26T11:02:03.650Z,4.72
2023-01-26T11:04:31.512Z,4.60
2023-01-26T11:07:26.463Z,4.44
2023-01-26T11:09:54.329Z,4.44
2023-01-26T11:12:25.592Z,4.41
2023-01-26T11:15:06.517Z,4.34
2023-01-26T11:17:39.534Z,4.37
2023-01-26T11:20:29.005Z,4.43
2023-01-26T11:23:04.905Z,4.49
2023-01-26T11:25:39.795Z,4.51
2023-01-26T11:28:25.674Z,4.54
2023-01-26T11:31:06.174Z,4.56
2023-01-26T11:33:42.730Z,4.52
2023-01-26T11:36:16.532Z,4.50
2023-01-26T11:38:51.896Z,4.52
2023-01-26T11:41:33.924Z,4.56
2023-01-26T11:44:26.374Z,4.74
2023-01-26T11:47:06.309Z,4.82
2023-01-26T11:49:52.420Z,4.83
2023-01-26T11:52:33.793Z,4.80
2023-01-26T11:55:18.531Z,4.85
2023-01-26T11:57:59.695Z,4.92
2023-01-26T12:00:38.694Z,4.83
2023-01-26T12:03:18.428Z,4.89
2023-01-26T12:05:51.566Z,4.99
2023-01-26T12:08:24.114Z,5.00
2023-01-26T12:11:22.349Z,5.08
2023-01-26T12:13:57.986Z,5.21
2023-01-26T12:16:34.920Z,5.16
2023-01-26T12:19:13.817Z,5.27
2023-01-26T12:21:46.118Z,5.14
2023-01-26T12:24:48.438Z,5.16
2023-01-26T12:27:16.818Z,5.07
2023-01-26T12:29:52.047Z,4.94
2023-01-26T12:32:19.940Z,4.93
2023-01-26T12:34:49.294Z,4.94
2023-01-26T12:37:36.100Z,4.98
2023-01-26T12:40:15.778Z,5.02
2023-01-26T12:42:50.522Z,5.17
2023-01-26T12:45:22.807Z,5.27
2023-01-26T12:47:54.388Z,5.27
2023-01-26T12:50:28.385Z,5.29
2023-01-26T12:53:00.601Z,5.25
2023-01-26T12:55:33.569Z,5.34
2023-01-26T12:58:04.899Z,5.32
2023-01-26T13:00:35.232Z,5.37
2023-01-26T13:03:06.426Z,5.30
2023-01-26T13:05:37.085Z,5.19
2023-01-26T13:08:48.645Z,5.20
2023-01-26T13:11:47.564Z,5.26
2023-01-26T13:14:37.344Z,5.31
2023-01-26T13:17:55.922Z,5.16
2023-01-26T13:20:29.748Z,5.18
2023-01-26T13:22:59.026Z,5.12
2023-01-26T13:25:32.524Z,5.19
2023-01-26T13:28:01.879Z,5.21
2023-01-26T13:30:44.404Z,5.18
2023-01-26T13:33:16.497Z,5.08
2023-01-26T13:35:46.659Z,5.06
2023-01-26T13:38:21.233Z,5.15
2023-01-26T13:40:50.746Z,5.21
2023-01-26T13:43:27.623Z,5.31
2023-01-26T13:46:07.871Z,5.31
2023-01-26T13:48:45.910Z,5.16
2023-01-26T13:51:19.744Z,5.05
2023-01-26T13:53:58.317Z,5.09
2023-01-26T13:56:29.998Z,5.03
2023-01-26T13:59:10.270Z,4.96
2023-01-26T14:01:46.515Z,4.86
2023-01-26T14:04:16.409Z,4.88
2023-01-26T14:06:48.318Z,4.81
2023-01-26T14:09:17.658Z,4.78
2023-01-26T14:11:48.950Z,4.78
2023-01-26T14:14:24.972Z,4.74
2023-01-26T14:16:52.775Z,4.75
2023-01-26T14:19:22.685Z,4.82
2023-01-26T14:21:53.288Z,4.84
2023-01-26T14:24:27.536Z,4.80
2023-01-26T14:26:55.448Z,4.72
2023-01-26T14:29:25.229Z,4.65
2023-01-26T14:31:54.223Z,4.63
2023-01-26T14:34:24.066Z,4.56
2023-01-26T14:37:06.818Z,4.61
2023-01-26T14:39:35.785Z,4.55
2023-01-26T14:42:04.768Z,4.59
2023-01-26T14:44:32.496Z,4.60
2023-01-26T14:47:05.654Z,4.61
2023-01-26T14:49:43.707Z,4.45
2023-01-26T14:52:25.169Z,4.33
2023-01-26T14:54:56.296Z,4.28
2023-01-26T14:57:26.360Z,4.21
2023-01-26T14:59:56.379Z,4.25
2023-01-26T15:02:25.642Z,4.25
2023-01-26T15:04:59.393Z,4.18
2023-01-26T15:07:35.778Z,4.19
2023-01-26T15:10:21.252Z,4.14
2023-01-26T15:12:57.461Z,4.14
2023-01-26T15:15:29.571Z,4.12
2023-01-26T15:18:06.573Z,4.09
2023-01-26T15:20:45.143Z,4.06
2023-01-26T15:23:23.739Z,4.00
2023-01-26T15:25:53.161Z,3.92
2023-01-26T15:28:25.745Z,3.82
2023-01-26T15:30:56.511Z,3.75
2023-01-26T15:33:47.246Z,3.61
2023-01-26T15:36:30.913Z,3.58
2023-01-26T15:39:01.118Z,3.54
2023-01-26T15:41:31.091Z,3.49
2023-01-26T15:43:59.555Z,3.46
2023-01-26T15:46:27.659Z,3.43
2023-01-26T15:48:55.933Z,3.39
2023-01-26T15:51:23.685Z,3.33
2023-01-26T15:53:51.275Z,3.28
2023-01-26T15:56:18.848Z,3.26
2023-01-26T15:58:48.007Z,3.24
2023-01-26T16:01:21.217Z,3.25
2023-01-26T16:03:49.202Z,3.26
2023-01-26T16:06:22.823Z,3.29
2023-01-26T16:08:50.889Z,3.33
2023-01-26T16:11:19.389Z,3.34
2023-01-26T16:14:02.563Z,3.38
2023-01-26T16:16:31.252Z,3.42
2023-01-26T16:18:58.976Z,3.48
2023-01-26T16:21:30.249Z,3.48
2023-01-26T16:23:58.834Z,3.53
2023-01-26T16:26:27.643Z,3.57
2023-01-26T16:28:57.095Z,3.60
2023-01-26T16:31:27.560Z,3.62
2023-01-26T16:33:55.644Z,3.64
2023-01-26T16:36:24.040Z,3.63
2023-01-26T16:38:51.733Z,3.63
2023-01-26T16:41:25.026Z,3.64
2023-01-26T16:43:57.012Z,3.66
2023-01-26T16:46:25.186Z,3.71
2023-01-26T16:48:53.421Z,3.73
2023-01-26T16:51:25.066Z,3.75
2023-01-26T16:53:53.389Z,3.76
2023-01-26T16:56:21.521Z,3.72
2023-01-26T16:58:49.154Z,3.69
2023-01-26T17:01:23.385Z,3.69
2023-01-26T17:03:51.440Z,3.71
2023-01-26T17:06:21.544Z,3.72
2023-01-26T17:08:50.103Z,3.79
2023-01-26T17:11:19.867Z,3.84
2023-01-26T17:13:48.009Z,3.88
2023-01-26T17:16:17.729Z,3.95
2023-01-26T17:18:47.683Z,4.02
2023-01-26T17:21:17.632Z,4.12
2023-01-26T17:23:45.671Z,4.18
2023-01-26T17:26:17.105Z,4.20
2023-01-26T17:28:45.173Z,4.24
2023-01-26T17:31:17.463Z,4.20
2023-01-26T17:33:47.979Z,4.10
2023-01-26T17:36:17.182Z,4.08
2023-01-26T17:38:45.034Z,4.00
2023-01-26T17:41:12.853Z,3.93
2023-01-26T17:43:40.446Z,3.82
2023-01-26T17:46:11.215Z,3.79
2023-01-26T17:48:39.013Z,3.77
2023-01-26T17:51:09.533Z,3.74
2023-01-26T17:53:38.245Z,3.68
2023-01-26T17:56:08.429Z,3.67
2023-01-26T17:58:36.790Z,3.70
2023-01-26T18:01:04.779Z,3.68
2023-01-26T18:03:32.500Z,3.69
2023-01-26T18:06:00.329Z,3.72
2023-01-26T18:08:29.293Z,3.73
2023-01-26T18:11:00.809Z,3.71
2023-01-26T18:13:29.333Z,3.77
2023-01-26T18:15:57.036Z,3.81
2023-01-26T18:18:25.644Z,3.82
2023-01-26T18:20:53.670Z,3.79
2023-01-26T18:23:22.268Z,3.82
2023-01-26T18:25:52.575Z,3.85
2023-01-26T18:28:20.233Z,3.83
2023-01-26T18:30:48.490Z,3.85
2023-01-26T18:33:16.173Z,3.88
2023-01-26T18:35:43.814Z,3.90
2023-01-26T18:38:11.449Z,3.90
2023-01-26T18:40:40.309Z,3.94
2023-01-26T18:43:09.528Z,4.01
2023-01-26T18:45:37.517Z,4.01
2023-01-26T18:48:05.621Z,4.01
2023-01-26T18:50:33.194Z,4.02
2023-01-26T18:53:00.816Z,4.06
2023-01-26T18:55:28.832Z,4.05
2023-01-26T18:57:56.463Z,4.09
2023-01-26T19:00:25.782Z,4.06
2023-01-26T19:02:53.417Z,4.12
2023-01-26T19:05:21.039Z,4.12
2023-01-26T19:07:48.793Z,4.13
2023-01-26T19:10:17.232Z,4.13
2023-01-26T19:12:44.818Z,4.15
2023-01-26T19:15:12.703Z,4.19
2023-01-26T19:17:44.671Z,4.17
2023-01-26T19:20:13.596Z,4.18
2023-01-26T19:22:41.189Z,4.18
2023-01-26T19:25:09.594Z,4.19
2023-01-26T19:27:37.430Z,4.21
2023-01-26T19:30:06.189Z,4.20
2023-01-26T19:32:33.755Z,4.21
2023-01-26T19:35:02.905Z,4.19
2023-01-26T19:37:30.521Z,4.21
2023-01-26T19:39:58.116Z,4.20
2023-01-26T19:42:25.722Z,4.22
2023-01-26T19:44:53.337Z,4.23
2023-01-26T19:47:20.908Z,4.22
2023-01-26T19:49:48.445Z,4.22
2023-01-26T19:52:17.553Z,4.23
2023-01-26T19:54:45.172Z,4.28
2023-01-26T19:57:12.828Z,4.31
2023-01-26T19:59:40.416Z,4.34
2023-01-26T20:02:10.592Z,4.35
2023-01-26T20:04:38.393Z,4.33
2023-01-26T20:07:06.798Z,4.39
2023-01-26T20:09:36.619Z,4.41
2023-01-26T20:12:06.009Z,4.40
2023-01-26T20:14:33.932Z,4.40
2023-01-26T20:17:02.645Z,4.39
2023-01-26T20:19:31.855Z,4.35
2023-01-26T20:21:59.909Z,4.37
2023-01-26T20:24:27.605Z,4.32
2023-01-26T20:26:57.030Z,4.32
2023-01-26T20:29:24.745Z,4.27
2023-01-26T20:31:52.477Z,4.26
2023-01-26T20:34:21.777Z,4.19
2023-01-26T20:36:49.946Z,4.22
2023-01-26T20:39:24.998Z,4.14
2023-01-26T20:41:53.096Z,4.16
2023-01-26T20:44:22.202Z,4.15
2023-01-26T20:46:49.894Z,4.17
2023-01-26T20:49:19.616Z,4.22
2023-01-26T20:51:47.656Z,4.19
2023-01-26T20:54:16.992Z,4.15
2023-01-26T20:56:46.566Z,4.12
2023-01-26T20:59:14.293Z,4.13
2023-01-26T21:01:43.233Z,4.19
2023-01-26T21:04:10.982Z,4.21
2023-01-26T21:06:39.571Z,4.20
2023-01-26T21:09:07.190Z,4.19
2023-01-26T21:11:37.844Z,4.20
2023-01-26T21:14:05.647Z,4.15
2023-01-26T21:16:35.619Z,4.15
2023-01-26T21:19:04.718Z,4.19
2023-01-26T21:21:32.453Z,4.19
2023-01-26T21:24:00.496Z,4.20
2023-01-26T21:26:28.786Z,4.16
2023-01-26T21:28:58.823Z,4.13
2023-01-26T21:31:28.729Z,4.07
2023-01-26T21:33:57.529Z,4.08
2023-01-26T21:36:29.115Z,4.00
2023-01-26T21:38:58.406Z,4.01
2023-01-26T21:41:46.338Z,4.04
2023-01-26T21:44:16.101Z,4.04
2023-01-26T21:46:45.901Z,4.07
2023-01-26T21:49:15.376Z,4.06
2023-01-26T21:52:02.035Z,4.09
2023-01-26T21:54:30.428Z,4.10
2023-01-26T21:56:58.631Z,4.05
2023-01-26T21:59:25.795Z,4.05
2023-01-26T22:01:55.226Z,4.10
2023-01-26T22:04:24.427Z,4.07
2023-01-26T22:06:53.534Z,4.03
2023-01-26T22:09:23.024Z,4.07
2023-01-26T22:11:51.584Z,4.05
2023-01-26T22:14:21.446Z,4.09
2023-01-26T22:16:49.320Z,4.09
2023-01-26T22:19:16.975Z,4.07
2023-01-26T22:21:44.689Z,4.06
2023-01-26T22:24:15.428Z,4.02
2023-01-26T22:26:43.426Z,4.01
2023-01-26T22:29:12.332Z,4.03
2023-01-26T22:31:40.136Z,4.03
2023-01-26T22:34:07.750Z,4.03
2023-01-26T22:36:35.399Z,4.02
2023-01-26T22:39:03.075Z,4.01
2023-01-26T22:41:32.311Z,4.01
2023-01-26T22:44:01.092Z,3.98
2023-01-26T22:46:30.774Z,3.95
2023-01-26T22:48:59.715Z,3.93
2023-01-26T22:51:29.398Z,3.93
2023-01-26T22:53:58.574Z,3.96
2023-01-26T22:56:27.115Z,3.95
2023-01-26T22:59:00.119Z,3.95
2023-01-26T23:01:30.137Z,3.93
2023-01-26T23:03:59.074Z,3.91
2023-01-26T23:06:27.267Z,3.90
2023-01-26T23:08:55.690Z,3.83
2023-01-26T23:11:25.630Z,3.80
2023-01-26T23:13:54.927Z,3.76
2023-01-26T23:16:25.110Z,3.79
2023-01-26T23:18:53.181Z,3.81
2023-01-26T23:21:20.813Z,3.83
2023-01-26T23:23:48.719Z,3.82
2023-01-26T23:26:16.549Z,3.81
2023-01-26T23:28:45.021Z,3.75
2023-01-26T23:31:14.092Z,3.77
2023-01-26T23:33:43.510Z,3.70
2023-01-26T23:36:12.541Z,3.58
2023-01-26T23:38:40.182Z,3.56
2023-01-26T23:41:08.574Z,3.58
2023-01-26T23:43:36.207Z,3.59
2023-01-26T23:46:04.851Z,3.62
2023-01-26T23:48:32.533Z,3.58
2023-01-26T23:51:03.886Z,3.59
2023-01-26T23:53:32.118Z,3.60
2023-01-26T23:56:01.564Z,3.59
2023-01-26T23:58:29.308Z,3.57
